createdAt,value
2022-09-14T00:00:28.678Z,69.13
2022-09-14T00:01:23.739Z,68.53
2022-09-14T00:01:52.964Z,69.00
2022-09-14T00:02:24.687Z,68.55
2022-09-14T00:02:56.605Z,69.25
2022-09-14T00:03:29.420Z,69.60
2022-09-14T00:04:01.973Z,69.10
2022-09-14T00:04:33.552Z,69.25
2022-09-14T00:05:06.487Z,69.57
2022-09-14T00:05:38.301Z,70.60
2022-09-14T00:06:11.132Z,69.10
2022-09-14T00:06:44.040Z,69.97
2022-09-14T00:07:15.683Z,68.60
2022-09-14T00:07:47.390Z,69.78
2022-09-14T00:08:19.996Z,69.05
2022-09-14T00:08:52.506Z,69.65
2022-09-14T00:09:26.065Z,68.85
2022-09-14T00:09:57.997Z,69.68
2022-09-14T00:10:29.699Z,68.63
2022-09-14T00:11:05.659Z,69.25
2022-09-14T00:11:38.847Z,69.00
2022-09-14T00:12:10.491Z,69.22
2022-09-14T00:12:42.104Z,69.93
2022-09-14T00:13:15.462Z,68.55
2022-09-14T00:13:47.564Z,68.63
2022-09-14T00:14:20.630Z,69.20
2022-09-14T00:14:53.281Z,68.93
2022-09-14T00:15:24.911Z,68.22
2022-09-14T00:15:56.522Z,69.93
2022-09-14T00:16:30.046Z,68.95
2022-09-14T00:17:01.903Z,69.03
2022-09-14T00:17:33.653Z,68.57
2022-09-14T00:18:05.687Z,69.53
2022-09-14T00:18:38.566Z,68.88
2022-09-14T00:19:15.581Z,68.10
2022-09-14T00:19:47.268Z,69.15
2022-09-14T00:20:19.889Z,69.15
2022-09-14T00:20:51.536Z,68.78
2022-09-14T00:21:23.767Z,68.93
2022-09-14T00:21:57.133Z,69.15
2022-09-14T00:22:28.742Z,69.07
2022-09-14T00:23:00.690Z,69.00
2022-09-14T00:23:33.560Z,70.15
2022-09-14T00:24:05.596Z,70.03
2022-09-14T00:24:37.616Z,68.95
2022-09-14T00:25:11.328Z,69.10
2022-09-14T00:25:42.980Z,69.03
2022-09-14T00:26:17.164Z,68.57
2022-09-14T00:26:49.883Z,69.07
2022-09-14T00:27:22.583Z,68.95
2022-09-14T00:27:54.324Z,68.47
2022-09-14T00:28:26.966Z,69.45
2022-09-14T00:28:59.797Z,68.53
2022-09-14T00:29:33.367Z,68.82
2022-09-14T00:30:06.349Z,68.70
2022-09-14T00:30:41.244Z,69.18
2022-09-14T00:31:14.323Z,69.97
2022-09-14T00:31:46.056Z,70.07
2022-09-14T00:32:17.771Z,70.53
2022-09-14T00:32:49.863Z,69.50
2022-09-14T00:33:22.454Z,69.68
2022-09-14T00:33:54.089Z,68.68
2022-09-14T00:34:26.686Z,68.72
2022-09-14T00:34:58.864Z,69.03
2022-09-14T00:35:30.650Z,68.57
2022-09-14T00:36:06.317Z,68.78
2022-09-14T00:36:40.052Z,69.95
2022-09-14T00:37:12.129Z,69.60
2022-09-14T00:37:43.827Z,70.00
2022-09-14T00:38:16.407Z,68.95
2022-09-14T00:38:48.677Z,70.35
2022-09-14T00:39:23.562Z,69.18
2022-09-14T00:39:55.488Z,69.55
2022-09-14T00:40:27.275Z,69.30
2022-09-14T00:40:59.919Z,68.60
2022-09-14T00:41:37.739Z,69.03
2022-09-14T00:42:15.796Z,69.20
2022-09-14T00:42:47.469Z,69.05
2022-09-14T00:43:19.044Z,69.00
2022-09-14T00:43:56.081Z,68.88
2022-09-14T00:44:46.134Z,69.70
2022-09-14T00:45:20.726Z,69.72
2022-09-14T00:45:52.973Z,68.88
2022-09-14T00:46:25.323Z,70.20
2022-09-14T00:46:58.887Z,69.80
2022-09-14T00:47:32.087Z,69.00
2022-09-14T00:48:03.955Z,68.90
2022-09-14T00:48:36.665Z,69.90
2022-09-14T00:49:10.332Z,69.85
2022-09-14T00:49:42.689Z,69.85
2022-09-14T00:50:15.578Z,68.85
2022-09-14T00:50:47.245Z,69.47
2022-09-14T00:51:19.273Z,69.10
2022-09-14T00:51:54.388Z,69.03
2022-09-14T00:52:27.417Z,68.75
2022-09-14T00:52:59.512Z,69.53
2022-09-14T00:53:32.109Z,69.95
2022-09-14T00:54:04.237Z,68.82
2022-09-14T00:54:36.419Z,68.97
2022-09-14T00:55:10.560Z,68.28
2022-09-14T00:55:42.695Z,68.70
2022-09-14T00:56:14.613Z,69.25
2022-09-14T00:56:48.755Z,70.25
2022-09-14T00:57:21.235Z,68.93
2022-09-14T00:57:53.781Z,70.03
2022-09-14T00:58:26.438Z,68.40
2022-09-14T00:58:58.738Z,69.30
2022-09-14T00:59:31.723Z,68.75
2022-09-14T01:00:05.915Z,69.75
2022-09-14T01:00:37.678Z,70.13
2022-09-14T01:01:10.461Z,70.13
2022-09-14T01:01:42.171Z,68.25
2022-09-14T01:02:15.816Z,69.70
2022-09-14T01:02:47.620Z,68.77
2022-09-14T01:03:20.232Z,69.43
2022-09-14T01:03:51.838Z,69.68
2022-09-14T01:04:24.140Z,69.20
2022-09-14T01:04:56.013Z,68.97
2022-09-14T01:05:32.911Z,69.43
2022-09-14T01:06:11.250Z,69.22
2022-09-14T01:06:46.778Z,69.20
2022-09-14T01:07:26.542Z,69.07
2022-09-14T01:08:05.482Z,68.72
2022-09-14T01:08:55.964Z,69.05
2022-09-14T01:09:32.174Z,68.90
2022-09-14T01:10:07.904Z,69.70
2022-09-14T01:10:49.622Z,68.50
2022-09-14T01:11:27.664Z,70.18
2022-09-14T01:12:07.906Z,69.22
2022-09-14T01:12:46.664Z,69.13
2022-09-14T01:13:23.008Z,69.13
2022-09-14T01:13:58.826Z,68.90
2022-09-14T01:14:32.951Z,69.70
2022-09-14T01:15:07.172Z,69.28
2022-09-14T01:15:45.004Z,69.03
2022-09-14T01:16:20.673Z,69.45
2022-09-14T01:16:56.066Z,68.70
2022-09-14T01:17:30.594Z,69.10
2022-09-14T01:18:08.370Z,69.75
2022-09-14T01:18:44.875Z,70.15
2022-09-14T01:19:22.622Z,68.95
2022-09-14T01:20:02.462Z,71.18
2022-09-14T01:20:36.767Z,68.90
2022-09-14T01:21:10.227Z,69.18
2022-09-14T01:21:42.465Z,68.40
2022-09-14T01:22:18.619Z,68.45
2022-09-14T01:22:53.079Z,71.22
2022-09-14T01:23:28.187Z,69.32
2022-09-14T01:24:06.109Z,69.20
2022-09-14T01:24:41.437Z,68.57
2022-09-14T01:25:28.861Z,69.03
2022-09-14T01:26:16.424Z,70.10
2022-09-14T01:27:07.238Z,69.63
2022-09-14T01:27:41.776Z,69.05
2022-09-14T01:28:17.142Z,68.95
2022-09-14T01:28:51.941Z,69.78
2022-09-14T01:29:26.166Z,69.57
2022-09-14T01:30:04.760Z,69.70
2022-09-14T01:30:38.393Z,69.80
2022-09-14T01:31:13.375Z,69.13
2022-09-14T01:31:49.335Z,67.95
2022-09-14T01:32:24.804Z,67.90
2022-09-14T01:33:00.376Z,68.45
2022-09-14T01:33:35.214Z,68.78
2022-09-14T01:34:09.453Z,69.20
2022-09-14T01:34:46.389Z,70.18
2022-09-14T01:35:20.165Z,69.43
2022-09-14T01:35:54.374Z,68.15
2022-09-14T01:36:27.014Z,69.15
2022-09-14T01:37:02.056Z,68.35
2022-09-14T01:37:35.766Z,69.28
2022-09-14T01:38:08.716Z,68.35
2022-09-14T01:38:43.190Z,69.20
2022-09-14T01:39:15.695Z,68.65
2022-09-14T01:39:49.049Z,69.32
2022-09-14T01:40:24.781Z,67.63
2022-09-14T01:40:57.351Z,68.55
2022-09-14T01:41:31.331Z,68.25
2022-09-14T01:42:04.480Z,68.57
2022-09-14T01:42:36.775Z,68.53
2022-09-14T01:43:12.048Z,68.15
2022-09-14T01:43:46.198Z,68.70
2022-09-14T01:44:21.220Z,68.07
2022-09-14T01:44:54.606Z,69.07
2022-09-14T01:45:27.446Z,68.70
2022-09-14T01:46:00.972Z,68.55
2022-09-14T01:46:36.952Z,68.43
2022-09-14T01:47:10.314Z,68.90
2022-09-14T01:47:44.738Z,69.10
2022-09-14T01:48:19.206Z,68.78
2022-09-14T01:48:53.537Z,68.75
2022-09-14T01:49:32.312Z,68.00
2022-09-14T01:50:07.407Z,68.82
2022-09-14T01:50:40.232Z,69.15
2022-09-14T01:51:13.091Z,69.55
2022-09-14T01:51:47.599Z,69.00
2022-09-14T01:52:21.636Z,69.35
2022-09-14T01:52:55.144Z,68.47
2022-09-14T01:53:34.652Z,68.30
2022-09-14T01:54:10.210Z,67.75
2022-09-14T01:54:43.958Z,68.15
2022-09-14T01:55:19.379Z,68.35
2022-09-14T01:55:53.996Z,69.30
2022-09-14T01:56:27.274Z,69.43
2022-09-14T01:57:02.071Z,68.85
2022-09-14T01:57:35.653Z,68.60
2022-09-14T01:58:09.906Z,68.63
2022-09-14T01:58:46.228Z,68.80
2022-09-14T01:59:20.859Z,68.25
2022-09-14T01:59:54.253Z,68.60
2022-09-14T02:00:27.063Z,69.28
2022-09-14T02:00:59.748Z,68.38
2022-09-14T02:01:35.541Z,68.57
2022-09-14T02:02:12.360Z,68.25
2022-09-14T02:02:47.943Z,68.05
2022-09-14T02:03:22.729Z,68.90
2022-09-14T02:04:01.019Z,68.18
2022-09-14T02:04:36.580Z,69.18
2022-09-14T02:05:09.212Z,69.17
2022-09-14T02:05:43.952Z,69.53
2022-09-14T02:06:19.777Z,68.63
2022-09-14T02:06:51.537Z,69.45
2022-09-14T02:07:24.287Z,69.63
2022-09-14T02:07:56.442Z,68.90
2022-09-14T02:08:29.857Z,68.25
2022-09-14T02:09:02.601Z,68.15
2022-09-14T02:09:34.403Z,68.78
2022-09-14T02:10:09.209Z,68.70
2022-09-14T02:10:41.939Z,68.25
2022-09-14T02:11:13.693Z,68.30
2022-09-14T02:11:45.553Z,68.60
2022-09-14T02:12:18.517Z,68.63
2022-09-14T02:12:50.273Z,69.28
2022-09-14T02:13:21.903Z,68.20
2022-09-14T02:13:55.966Z,68.07
2022-09-14T02:14:28.110Z,68.60
2022-09-14T02:14:59.771Z,68.78
2022-09-14T02:15:32.433Z,68.07
2022-09-14T02:16:04.477Z,68.35
2022-09-14T02:16:36.280Z,67.93
2022-09-14T02:17:08.332Z,68.30
2022-09-14T02:17:41.184Z,68.47
2022-09-14T02:18:12.801Z,68.63
2022-09-14T02:18:44.743Z,69.22
2022-09-14T02:19:21.717Z,68.75
2022-09-14T02:19:56.447Z,68.72
2022-09-14T02:20:30.312Z,68.43
2022-09-14T02:21:05.094Z,68.07
2022-09-14T02:21:38.113Z,69.57
2022-09-14T02:22:09.749Z,68.15
2022-09-14T02:22:41.550Z,68.55
2022-09-14T02:23:14.280Z,68.35
2022-09-14T02:23:46.731Z,68.45
2022-09-14T02:24:18.537Z,68.20
2022-09-14T02:24:52.224Z,69.32
2022-09-14T02:25:23.856Z,68.78
2022-09-14T02:25:58.189Z,68.25
2022-09-14T02:26:30.814Z,68.18
2022-09-14T02:27:02.606Z,68.00
2022-09-14T02:27:34.319Z,68.00
2022-09-14T02:28:06.923Z,69.03
2022-09-14T02:28:38.624Z,69.32
2022-09-14T02:29:11.841Z,68.53
2022-09-14T02:29:44.563Z,68.47
2022-09-14T02:30:16.745Z,69.55
2022-09-14T02:30:52.640Z,68.45
2022-09-14T02:31:30.615Z,68.78
2022-09-14T02:32:08.063Z,68.88
2022-09-14T02:32:43.685Z,68.03
2022-09-14T02:33:18.148Z,68.75
2022-09-14T02:33:56.373Z,68.03
2022-09-14T02:34:31.272Z,68.85
2022-09-14T02:35:07.923Z,68.28
2022-09-14T02:35:41.040Z,68.90
2022-09-14T02:36:16.555Z,67.95
2022-09-14T02:36:50.526Z,68.43
2022-09-14T02:37:25.577Z,68.40
2022-09-14T02:38:00.477Z,67.78
2022-09-14T02:38:35.439Z,68.60
2022-09-14T02:39:11.493Z,68.33
2022-09-14T02:39:46.679Z,68.38
2022-09-14T02:40:21.660Z,68.32
2022-09-14T02:40:55.194Z,67.63
2022-09-14T02:41:29.916Z,67.90
2022-09-14T02:42:06.649Z,68.47
2022-09-14T02:42:41.652Z,68.00
2022-09-14T02:43:19.755Z,68.93
2022-09-14T02:44:01.481Z,68.07
2022-09-14T02:44:38.243Z,68.43
2022-09-14T02:45:13.305Z,68.00
2022-09-14T02:45:52.600Z,69.30
2022-09-14T02:46:35.505Z,68.57
2022-09-14T02:47:10.266Z,69.38
2022-09-14T02:47:49.599Z,69.07
2022-09-14T02:48:22.857Z,69.03
2022-09-14T02:48:58.603Z,69.30
2022-09-14T02:49:36.616Z,68.47
2022-09-14T02:50:14.024Z,68.22
2022-09-14T02:50:47.626Z,68.40
2022-09-14T02:51:21.905Z,68.75
2022-09-14T02:51:56.416Z,68.20
2022-09-14T02:52:31.964Z,68.45
2022-09-14T02:53:07.392Z,68.27
2022-09-14T02:53:42.812Z,69.55
2022-09-14T02:54:16.110Z,68.70
2022-09-14T02:54:53.486Z,68.78
2022-09-14T02:55:26.857Z,68.47
2022-09-14T02:55:59.654Z,68.10
2022-09-14T02:56:32.658Z,68.78
2022-09-14T02:57:04.682Z,68.45
2022-09-14T02:57:51.166Z,68.03
2022-09-14T02:58:23.881Z,68.93
2022-09-14T02:58:55.952Z,67.50
2022-09-14T02:59:27.556Z,68.80
2022-09-14T03:00:01.655Z,68.00
2022-09-14T03:00:36.778Z,68.82
2022-09-14T03:01:10.355Z,68.13
2022-09-14T03:01:43.077Z,68.50
2022-09-14T03:02:14.996Z,68.10
2022-09-14T03:02:46.695Z,68.65
2022-09-14T03:03:20.999Z,68.72
2022-09-14T03:03:52.648Z,69.88
2022-09-14T03:04:24.374Z,67.93
2022-09-14T03:04:56.998Z,69.60
2022-09-14T03:05:28.677Z,68.50
2022-09-14T03:06:00.343Z,67.78
2022-09-14T03:06:32.965Z,68.40
2022-09-14T03:07:04.789Z,68.20
2022-09-14T03:07:36.465Z,68.22
2022-09-14T03:08:08.614Z,67.75
2022-09-14T03:08:42.085Z,68.97
2022-09-14T03:09:13.841Z,68.90
2022-09-14T03:09:45.655Z,67.93
2022-09-14T03:10:17.372Z,68.75
2022-09-14T03:10:50.053Z,67.82
2022-09-14T03:11:21.658Z,67.82
2022-09-14T03:11:53.273Z,67.97
2022-09-14T03:12:24.902Z,68.43
2022-09-14T03:12:57.568Z,67.97
2022-09-14T03:13:29.240Z,67.85
2022-09-14T03:14:00.862Z,68.38
2022-09-14T03:14:33.539Z,68.70
2022-09-14T03:15:07.180Z,68.18
2022-09-14T03:15:39.023Z,67.67
2022-09-14T03:16:12.868Z,67.82
2022-09-14T03:16:44.538Z,67.78
2022-09-14T03:17:16.173Z,68.10
2022-09-14T03:17:48.809Z,68.38
2022-09-14T03:18:20.568Z,68.15
2022-09-14T03:18:52.316Z,68.45
2022-09-14T03:19:24.936Z,68.05
2022-09-14T03:19:56.542Z,68.15
2022-09-14T03:20:29.210Z,68.25
2022-09-14T03:21:05.397Z,68.30
2022-09-14T03:21:38.257Z,68.13
2022-09-14T03:22:10.853Z,67.63
2022-09-14T03:22:42.612Z,67.78
2022-09-14T03:23:14.371Z,67.78
2022-09-14T03:23:47.972Z,67.80
2022-09-14T03:24:19.566Z,68.45
2022-09-14T03:24:51.214Z,69.28
2022-09-14T03:25:23.103Z,67.47
2022-09-14T03:25:55.731Z,68.03
2022-09-14T03:26:29.066Z,68.95
2022-09-14T03:27:00.738Z,68.00
2022-09-14T03:27:33.314Z,67.32
2022-09-14T03:28:05.322Z,67.60
2022-09-14T03:28:37.026Z,67.97
2022-09-14T03:29:09.784Z,67.90
2022-09-14T03:29:41.419Z,67.93
2022-09-14T03:30:14.664Z,68.40
2022-09-14T03:30:47.842Z,67.40
2022-09-14T03:31:22.778Z,67.95
2022-09-14T03:31:54.536Z,68.03
2022-09-14T03:32:26.286Z,67.67
2022-09-14T03:32:59.082Z,68.80
2022-09-14T03:33:30.902Z,67.80
2022-09-14T03:34:02.668Z,67.20
2022-09-14T03:34:35.294Z,67.00
2022-09-14T03:35:07.522Z,67.45
2022-09-14T03:35:39.180Z,68.32
2022-09-14T03:36:12.546Z,68.28
2022-09-14T03:36:44.210Z,67.90
2022-09-14T03:37:15.788Z,69.60
2022-09-14T03:37:48.401Z,66.97
2022-09-14T03:38:20.040Z,67.60
2022-09-14T03:38:52.253Z,67.88
2022-09-14T03:39:24.930Z,67.60
2022-09-14T03:39:56.612Z,67.63
2022-09-14T03:40:28.396Z,67.70
2022-09-14T03:41:00.159Z,67.53
2022-09-14T03:41:33.159Z,69.15
2022-09-14T03:42:05.343Z,68.60
2022-09-14T03:42:43.181Z,67.78
2022-09-14T03:43:15.950Z,68.35
2022-09-14T03:43:48.085Z,67.68
2022-09-14T03:44:19.826Z,68.03
2022-09-14T03:44:51.456Z,68.15
2022-09-14T03:45:25.656Z,67.63
2022-09-14T03:45:57.294Z,67.70
2022-09-14T03:46:29.102Z,68.00
2022-09-14T03:47:01.884Z,68.45
2022-09-14T03:47:33.708Z,67.72
2022-09-14T03:48:06.018Z,66.93
2022-09-14T03:48:38.890Z,68.07
2022-09-14T03:49:10.618Z,68.85
2022-09-14T03:49:42.239Z,68.28
2022-09-14T03:50:15.470Z,68.30
2022-09-14T03:50:47.136Z,68.85
2022-09-14T03:51:18.830Z,67.97
2022-09-14T03:51:51.450Z,68.13
2022-09-14T03:52:23.060Z,67.88
2022-09-14T03:52:54.701Z,67.35
2022-09-14T03:53:27.683Z,67.82
2022-09-14T03:53:59.354Z,68.22
2022-09-14T03:54:31.008Z,68.20
2022-09-14T03:55:03.828Z,68.10
2022-09-14T03:55:35.542Z,67.43
2022-09-14T03:56:07.862Z,68.85
2022-09-14T03:56:40.553Z,69.05
2022-09-14T03:57:12.147Z,68.25
2022-09-14T03:57:43.782Z,68.10
2022-09-14T03:58:16.466Z,68.55
2022-09-14T03:58:48.951Z,68.43
2022-09-14T03:59:20.965Z,67.43
2022-09-14T03:59:53.533Z,68.28
2022-09-14T04:00:26.542Z,68.47
2022-09-14T04:01:03.183Z,67.78
2022-09-14T04:01:35.854Z,67.35
2022-09-14T04:02:07.496Z,67.05
2022-09-14T04:02:39.234Z,68.07
2022-09-14T04:03:11.915Z,68.32
2022-09-14T04:03:43.685Z,68.15
2022-09-14T04:04:15.779Z,67.13
2022-09-14T04:04:48.538Z,68.28
2022-09-14T04:05:21.916Z,67.93
2022-09-14T04:05:56.949Z,68.63
2022-09-14T04:06:29.540Z,68.35
2022-09-14T04:07:01.147Z,68.53
2022-09-14T04:07:32.772Z,67.50
2022-09-14T04:08:05.398Z,67.57
2022-09-14T04:08:37.958Z,67.95
2022-09-14T04:09:09.570Z,67.72
2022-09-14T04:09:42.221Z,67.75
2022-09-14T04:10:13.819Z,68.25
2022-09-14T04:10:45.507Z,68.65
2022-09-14T04:11:19.351Z,68.10
2022-09-14T04:11:51.035Z,67.90
2022-09-14T04:12:22.666Z,67.05
2022-09-14T04:12:55.486Z,67.80
2022-09-14T04:13:27.165Z,68.07
2022-09-14T04:14:00.895Z,68.45
2022-09-14T04:14:33.655Z,67.60
2022-09-14T04:15:06.050Z,69.03
2022-09-14T04:15:39.146Z,67.88
2022-09-14T04:16:12.304Z,68.35
2022-09-14T04:16:44.755Z,69.70
2022-09-14T04:17:17.642Z,68.53
2022-09-14T04:17:51.214Z,68.38
2022-09-14T04:18:22.914Z,68.57
2022-09-14T04:18:54.623Z,68.97
2022-09-14T04:19:27.311Z,67.93
2022-09-14T04:19:58.948Z,68.82
2022-09-14T04:20:30.573Z,67.60
2022-09-14T04:21:07.967Z,68.55
2022-09-14T04:21:40.953Z,68.07
2022-09-14T04:22:12.542Z,68.03
2022-09-14T04:22:45.283Z,69.13
2022-09-14T04:23:16.928Z,70.18
2022-09-14T04:24:13.379Z,68.28
2022-09-14T04:24:41.590Z,70.15
2022-09-14T04:25:13.184Z,70.00
2022-09-14T04:25:44.837Z,71.32
2022-09-14T04:26:18.950Z,70.78
2022-09-14T04:26:50.550Z,70.47
2022-09-14T04:27:23.195Z,69.37
2022-09-14T04:28:10.248Z,70.05
2022-09-14T04:28:48.063Z,70.03
2022-09-14T04:29:19.755Z,69.13
2022-09-14T04:29:51.425Z,69.55
2022-09-14T04:30:24.075Z,68.63
2022-09-14T04:30:58.467Z,69.65
2022-09-14T04:31:30.452Z,68.63
2022-09-14T04:32:03.681Z,68.70
2022-09-14T04:32:35.354Z,68.22
2022-09-14T04:33:06.973Z,68.63
2022-09-14T04:33:40.468Z,68.53
2022-09-14T04:34:12.936Z,68.72
2022-09-14T04:34:44.664Z,68.03
2022-09-14T04:35:17.415Z,68.60
2022-09-14T04:35:55.833Z,68.50
2022-09-14T04:36:30.809Z,69.40
2022-09-14T04:37:03.772Z,68.00
2022-09-14T04:37:35.464Z,67.97
2022-09-14T04:38:07.123Z,68.10
2022-09-14T04:38:39.977Z,68.10
2022-09-14T04:39:15.179Z,68.68
2022-09-14T04:39:47.940Z,68.30
2022-09-14T04:40:19.739Z,68.30
2022-09-14T04:40:51.626Z,69.25
2022-09-14T04:41:24.272Z,67.78
2022-09-14T04:41:55.929Z,68.32
2022-09-14T04:43:14.071Z,68.22
2022-09-14T04:43:53.576Z,68.00
2022-09-14T04:44:26.269Z,68.03
2022-09-14T04:44:57.932Z,68.30
2022-09-14T04:45:30.671Z,68.57
2022-09-14T04:46:04.225Z,68.05
2022-09-14T04:46:50.820Z,68.03
2022-09-14T04:47:36.723Z,68.60
2022-09-14T04:48:08.703Z,68.10
2022-09-14T04:48:40.686Z,67.38
2022-09-14T04:49:13.324Z,69.05
2022-09-14T04:49:44.941Z,68.35
2022-09-14T04:50:19.373Z,68.57
2022-09-14T04:50:51.029Z,68.30
2022-09-14T04:51:24.598Z,68.50
2022-09-14T04:51:56.250Z,67.88
2022-09-14T04:52:27.859Z,68.82
2022-09-14T04:53:00.423Z,68.38
2022-09-14T04:53:33.661Z,68.30
2022-09-14T04:54:06.312Z,68.30
2022-09-14T04:54:38.932Z,68.40
2022-09-14T04:55:10.592Z,68.85
2022-09-14T04:55:44.985Z,69.27
2022-09-14T04:56:18.023Z,67.80
2022-09-14T04:56:49.689Z,69.05
2022-09-14T04:57:22.387Z,68.50
2022-09-14T04:57:54.243Z,68.80
2022-09-14T04:58:25.879Z,68.55
2022-09-14T04:58:58.477Z,68.15
2022-09-14T04:59:31.098Z,69.10
2022-09-14T05:00:27.893Z,68.35
2022-09-14T05:01:01.395Z,68.30
2022-09-14T05:01:36.718Z,68.53
2022-09-14T05:02:08.638Z,68.45
2022-09-14T05:02:40.791Z,67.97
2022-09-14T05:03:13.624Z,68.75
2022-09-14T05:03:45.277Z,68.32
2022-09-14T05:04:17.093Z,68.37
2022-09-14T05:04:50.309Z,67.70
2022-09-14T05:05:21.900Z,68.80
2022-09-14T05:05:53.577Z,69.20
2022-09-14T05:06:27.235Z,68.50
2022-09-14T05:06:58.838Z,68.93
2022-09-14T05:07:31.513Z,69.32
2022-09-14T05:08:03.190Z,68.20
2022-09-14T05:08:36.491Z,69.35
2022-09-14T05:09:13.086Z,68.88
2022-09-14T05:09:45.001Z,69.18
2022-09-14T05:10:16.681Z,68.30
2022-09-14T05:10:49.283Z,68.60
2022-09-14T05:11:21.703Z,67.70
2022-09-14T05:11:53.383Z,69.28
2022-09-14T05:12:25.941Z,69.50
2022-09-14T05:12:57.531Z,68.80
2022-09-14T05:13:29.168Z,69.32
2022-09-14T05:14:02.166Z,68.22
2022-09-14T05:14:33.803Z,68.60
2022-09-14T05:15:06.083Z,68.93
2022-09-14T05:15:38.825Z,69.32
2022-09-14T05:16:11.731Z,69.47
2022-09-14T05:16:46.712Z,70.20
2022-09-14T05:17:18.355Z,69.72
2022-09-14T05:17:49.939Z,68.72
2022-09-14T05:18:22.778Z,68.18
2022-09-14T05:18:55.305Z,68.88
2022-09-14T05:19:27.088Z,68.65
2022-09-14T05:20:00.151Z,69.38
2022-09-14T05:20:31.852Z,70.03
2022-09-14T05:21:08.145Z,68.82
2022-09-14T05:21:41.135Z,69.80
2022-09-14T05:22:12.714Z,68.53
2022-09-14T05:22:44.417Z,69.43
2022-09-14T05:23:16.959Z,69.32
2022-09-14T05:23:55.388Z,68.70
2022-09-14T05:24:28.214Z,69.18
2022-09-14T05:24:59.842Z,69.13
2022-09-14T05:25:31.899Z,69.53
2022-09-14T05:26:05.007Z,69.40
2022-09-14T05:26:36.639Z,69.15
2022-09-14T05:27:08.285Z,69.43
2022-09-14T05:27:40.918Z,69.45
2022-09-14T05:28:13.381Z,68.50
2022-09-14T05:28:49.475Z,69.22
2022-09-14T05:29:22.066Z,68.40
2022-09-14T05:29:53.674Z,69.35
2022-09-14T05:30:25.367Z,68.70
2022-09-14T05:30:58.015Z,69.30
2022-09-14T05:31:31.090Z,69.05
2022-09-14T05:32:04.507Z,68.70
2022-09-14T05:32:38.205Z,69.47
2022-09-14T05:33:09.851Z,69.35
2022-09-14T05:33:41.497Z,70.75
2022-09-14T05:34:14.245Z,70.40
2022-09-14T05:34:45.889Z,69.78
2022-09-14T05:35:17.579Z,71.28
2022-09-14T05:35:51.011Z,70.43
2022-09-14T05:36:22.903Z,72.60
2022-09-14T05:36:54.617Z,70.85
2022-09-14T05:37:27.317Z,71.80
2022-09-14T05:38:00.723Z,70.65
2022-09-14T05:38:32.680Z,71.50
2022-09-14T05:39:05.533Z,70.95
2022-09-14T05:39:37.188Z,72.72
2022-09-14T05:40:09.363Z,70.55
2022-09-14T05:40:42.215Z,72.15
2022-09-14T05:41:14.275Z,73.30
2022-09-14T05:41:45.963Z,72.15
2022-09-14T05:42:18.591Z,72.53
2022-09-14T05:42:50.476Z,74.20
2022-09-14T05:43:22.699Z,71.93
2022-09-14T05:43:55.323Z,74.57
2022-09-14T05:44:26.945Z,72.97
2022-09-14T05:44:59.537Z,74.53
2022-09-14T05:45:32.415Z,75.05
2022-09-14T05:46:04.867Z,75.40
2022-09-14T05:46:37.630Z,74.45
2022-09-14T05:47:10.637Z,75.32
2022-09-14T05:47:42.241Z,76.22
2022-09-14T05:48:14.867Z,77.68
2022-09-14T05:48:46.749Z,77.45
2022-09-14T05:49:18.418Z,76.13
2022-09-14T05:49:53.155Z,75.07
2022-09-14T05:50:25.116Z,75.65
2022-09-14T05:50:58.847Z,73.97
2022-09-14T05:51:31.413Z,73.43
2022-09-14T05:52:03.600Z,73.40
2022-09-14T05:52:35.449Z,74.03
2022-09-14T05:53:08.159Z,72.75
2022-09-14T05:53:40.357Z,72.15
2022-09-14T05:54:12.117Z,73.35
2022-09-14T05:54:52.341Z,71.80
2022-09-14T05:55:23.990Z,72.20
2022-09-14T05:56:02.585Z,71.72
2022-09-14T05:56:35.182Z,71.60
2022-09-14T05:57:06.949Z,71.70
2022-09-14T05:57:38.531Z,71.18
2022-09-14T05:58:11.149Z,73.03
2022-09-14T05:58:43.397Z,72.90
2022-09-14T05:59:15.293Z,72.43
2022-09-14T05:59:48.005Z,71.78
2022-09-14T06:00:22.216Z,72.05
2022-09-14T06:00:53.835Z,70.85
2022-09-14T06:01:27.409Z,71.55
2022-09-14T06:01:59.123Z,72.18
2022-09-14T06:02:33.493Z,72.40
2022-09-14T06:03:07.421Z,72.00
2022-09-14T06:03:39.724Z,71.22
2022-09-14T06:04:12.597Z,71.10
2022-09-14T06:04:44.295Z,71.85
2022-09-14T06:05:16.114Z,73.25
2022-09-14T06:05:48.913Z,72.07
2022-09-14T06:06:20.886Z,72.88
2022-09-14T06:07:14.944Z,72.22
2022-09-14T06:07:45.539Z,72.22
2022-09-14T06:08:17.213Z,72.18
2022-09-14T06:08:52.536Z,72.13
2022-09-14T06:09:24.434Z,71.28
2022-09-14T06:09:57.025Z,71.82
2022-09-14T06:10:28.667Z,72.20
2022-09-14T06:11:02.899Z,71.78
2022-09-14T06:11:37.327Z,71.93
2022-09-14T06:12:09.214Z,70.55
2022-09-14T06:12:40.823Z,71.28
2022-09-14T06:13:18.841Z,70.80
2022-09-14T06:13:50.688Z,71.93
2022-09-14T06:14:23.300Z,70.82
2022-09-14T06:14:54.940Z,70.97
2022-09-14T06:15:26.571Z,70.60
2022-09-14T06:16:01.573Z,71.85
2022-09-14T06:16:36.925Z,70.78
2022-09-14T06:17:08.653Z,71.07
2022-09-14T06:17:41.753Z,70.80
2022-09-14T06:18:16.227Z,70.70
2022-09-14T06:18:48.760Z,70.53
2022-09-14T06:19:22.629Z,70.57
2022-09-14T06:19:54.289Z,70.40
2022-09-14T06:20:25.941Z,71.88
2022-09-14T06:20:58.646Z,72.60
2022-09-14T06:21:34.434Z,71.18
2022-09-14T06:22:07.028Z,72.10
2022-09-14T06:22:38.638Z,72.32
2022-09-14T06:23:10.262Z,72.68
2022-09-14T06:23:43.232Z,73.40
2022-09-14T06:24:15.968Z,72.13
2022-09-14T06:24:47.601Z,72.45
2022-09-14T06:25:19.258Z,73.22
2022-09-14T06:25:53.619Z,73.32
2022-09-14T06:26:26.646Z,73.93
2022-09-14T06:26:59.277Z,72.65
2022-09-14T06:27:30.906Z,73.47
2022-09-14T06:28:02.890Z,74.35
2022-09-14T06:28:35.877Z,73.60
2022-09-14T06:29:10.226Z,75.70
2022-09-14T06:29:41.879Z,74.00
2022-09-14T06:30:16.325Z,75.13
2022-09-14T06:30:50.423Z,74.68
2022-09-14T06:31:27.986Z,74.75
2022-09-14T06:32:04.561Z,74.65
2022-09-14T06:32:36.279Z,74.23
2022-09-14T06:33:14.958Z,73.97
2022-09-14T06:33:49.168Z,74.97
2022-09-14T06:34:20.840Z,74.82
2022-09-14T06:34:53.576Z,75.07
2022-09-14T06:35:25.197Z,75.18
2022-09-14T06:35:59.719Z,73.93
2022-09-14T06:36:34.464Z,74.53
2022-09-14T06:37:06.098Z,74.28
2022-09-14T06:37:39.400Z,75.25
2022-09-14T06:38:15.496Z,73.80
2022-09-14T06:38:49.728Z,75.15
2022-09-14T06:39:22.625Z,74.53
2022-09-14T06:39:54.340Z,74.32
2022-09-14T06:40:29.174Z,73.77
2022-09-14T06:41:04.626Z,74.15
2022-09-14T06:41:36.281Z,74.30
2022-09-14T06:42:21.138Z,74.18
2022-09-14T06:43:04.785Z,73.72
2022-09-14T06:43:43.917Z,74.15
2022-09-14T06:44:15.620Z,72.50
2022-09-14T06:44:48.235Z,72.32
2022-09-14T06:45:19.816Z,72.10
2022-09-14T06:46:02.541Z,71.80
2022-09-14T06:46:35.747Z,72.53
2022-09-14T06:47:07.682Z,71.65
2022-09-14T06:47:39.294Z,71.97
2022-09-14T06:48:13.290Z,74.13
2022-09-14T06:48:48.814Z,71.93
2022-09-14T06:49:25.438Z,71.72
2022-09-14T06:50:00.577Z,71.90
2022-09-14T06:50:32.194Z,71.72
2022-09-14T06:51:12.321Z,72.97
2022-09-14T06:51:44.847Z,71.82
2022-09-14T06:52:20.023Z,72.15
2022-09-14T06:52:59.307Z,71.65
2022-09-14T06:53:30.960Z,70.82
2022-09-14T06:54:04.408Z,71.05
2022-09-14T06:54:36.088Z,71.63
2022-09-14T06:55:10.545Z,70.47
2022-09-14T06:55:50.859Z,70.90
2022-09-14T06:56:28.925Z,70.93
2022-09-14T06:57:02.927Z,70.72
2022-09-14T06:57:34.531Z,69.82
2022-09-14T06:58:15.952Z,71.15
2022-09-14T06:58:50.651Z,70.43
2022-09-14T06:59:30.492Z,70.10
2022-09-14T07:00:05.600Z,69.95
2022-09-14T07:00:37.605Z,70.00
2022-09-14T07:01:15.374Z,70.22
2022-09-14T07:01:49.789Z,70.85
2022-09-14T07:02:25.395Z,70.85
2022-09-14T07:02:57.113Z,70.05
2022-09-14T07:03:30.214Z,71.07
2022-09-14T07:04:05.792Z,69.60
2022-09-14T07:04:39.986Z,70.23
2022-09-14T07:05:13.687Z,69.78
2022-09-14T07:05:46.285Z,70.80
2022-09-14T07:06:22.264Z,70.03
2022-09-14T07:06:55.068Z,69.50
2022-09-14T07:07:29.348Z,69.38
2022-09-14T07:08:10.176Z,70.15
2022-09-14T07:08:45.149Z,70.40
2022-09-14T07:09:19.553Z,70.10
2022-09-14T07:09:51.197Z,69.70
2022-09-14T07:10:29.555Z,69.97
2022-09-14T07:11:01.330Z,70.32
2022-09-14T07:11:38.131Z,70.85
2022-09-14T07:12:14.048Z,69.22
2022-09-14T07:12:45.994Z,69.32
2022-09-14T07:13:20.140Z,70.80
2022-09-14T07:13:54.605Z,68.70
2022-09-14T07:14:32.372Z,68.93